SE Lincoln WX Station Historical Data
 
Daily Summary for August 13, 2020 Units:  English    Metric   Both
Daily Weekly Monthly Yearly Custom
  Current: High: Low: Average:
Temperature: 86.4 °F 86.7 °F 72.2 °F 75.8 °F
Dew Point: 71.8 °F 73.9 °F 69.8 °F 71.4 °F
Humidity: 61.9% 94% 61.9% 87%
Wind Speed: 3.7mph 5.5mph 0.1mph 2.6mph
Wind Gust: 9mph 14mph - -
WindSouth - - SSE
Pressure: 29.94 in 29.95 in 29.91 in -
Precipitation: 0.00 in      
 
Tabular Data for August 13, 2020
Time Temperature Dew Point Pressure Wind Wind Speed Wind Gust Humidity Rainfall Rate (Hourly) solar
00:04 73.9 °F 70.8 °F 29.92 in ESE 1.8 mph 5 mph 90% 0.00 in 0 W/m2
00:09 73.7 °F 70.8 °F 29.92 in ESE 1.9 mph 5 mph 90.4% 0.00 in 0 W/m2
00:14 73.6 °F 70.8 °F 29.92 in SE 2 mph 5 mph 91% 0.00 in 0 W/m2
00:19 73.5 °F 70.7 °F 29.92 in SE 1.6 mph 5 mph 91% 0.00 in 0 W/m2
00:24 73.5 °F 70.7 °F 29.92 in SE 1.5 mph 5 mph 91% 0.00 in 0 W/m2
00:29 73.5 °F 70.9 °F 29.92 in SSE 1.4 mph 4 mph 91.7% 0.00 in 0 W/m2
00:34 73.5 °F 71.1 °F 29.92 in SE 2.4 mph 6 mph 92% 0.00 in 0 W/m2
00:39 73.5 °F 71.1 °F 29.92 in SE 2.3 mph 5 mph 92% 0.00 in 0 W/m2
00:44 73.5 °F 71.1 °F 29.92 in ESE 1.9 mph 5 mph 92% 0.00 in 0 W/m2
00:49 73.5 °F 71 °F 29.92 in ESE 2.5 mph 6 mph 92% 0.00 in 0 W/m2
00:54 73.5 °F 71 °F 29.92 in SE 2.2 mph 5 mph 92% 0.00 in 0 W/m2
00:59 73.5 °F 71 °F 29.92 in SE 2.6 mph 6 mph 92% 0.00 in 0 W/m2
01:04 73.6 °F 71.1 °F 29.92 in ESE 2.1 mph 6 mph 92% 0.00 in 0 W/m2
01:09 73.6 °F 71.1 °F 29.92 in SE 3.5 mph 6 mph 92% 0.00 in 0 W/m2
01:14 73.6 °F 71.1 °F 29.92 in ESE 1.6 mph 6 mph 92% 0.00 in 0 W/m2
01:19 73.6 °F 71.3 °F 29.92 in ESE 2.5 mph 5 mph 92.5% 0.00 in 0 W/m2
01:24 73.6 °F 71.5 °F 29.92 in ESE 2.1 mph 7 mph 93% 0.00 in 0 W/m2
01:29 73.6 °F 71.5 °F 29.92 in SE 2.8 mph 7 mph 93% 0.00 in 0 W/m2
01:34 73.6 °F 71.5 °F 29.91 in SE 2.8 mph 7 mph 93% 0.00 in 0 W/m2
01:39 73.7 °F 71.5 °F 29.91 in SE 2.7 mph 7 mph 93% 0.00 in 0 W/m2
01:44 73.7 °F 71.6 °F 29.91 in SE 3.1 mph 7 mph 93% 0.00 in 0 W/m2
01:49 73.7 °F 71.5 °F 29.91 in SE 2.1 mph 7 mph 93% 0.00 in 0 W/m2
01:54 73.6 °F 71.5 °F 29.91 in SE 2.6 mph 7 mph 93% 0.00 in 0 W/m2
01:59 73.6 °F 71.5 °F 29.91 in ESE 2.9 mph 6 mph 93% 0.00 in 0 W/m2
02:04 73.5 °F 71.4 °F 29.91 in SE 3.5 mph 6 mph 93% 0.00 in 0 W/m2
02:09 73.5 °F 71.4 °F 29.91 in SSE 1.4 mph 6 mph 93% 0.00 in 0 W/m2
02:14 73.4 °F 71.3 °F 29.91 in SSE 0.6 mph 4 mph 93% 0.00 in 0 W/m2
02:19 73.4 °F 71.2 °F 29.91 in ESE 2.3 mph 5 mph 93% 0.00 in 0 W/m2
02:24 73.3 °F 71.2 °F 29.91 in ESE 1.3 mph 5 mph 93% 0.00 in 0 W/m2
02:29 73.2 °F 71.1 °F 29.91 in SE 1.4 mph 4 mph 93% 0.00 in 0 W/m2
02:34 73.2 °F 71.1 °F 29.92 in SSE 1.2 mph 4 mph 93% 0.00 in 0 W/m2
02:39 73.2 °F 71 °F 29.92 in SE 1.7 mph 6 mph 93% 0.00 in 0 W/m2
02:44 73.2 °F 71.2 °F 29.92 in SE 2.6 mph 6 mph 93.5% 0.00 in 0 W/m2
02:49 73.2 °F 71.4 °F 29.92 in SSE 1.9 mph 6 mph 94% 0.00 in 0 W/m2
02:54 73.2 °F 71.4 °F 29.92 in SE 2.4 mph 7 mph 94% 0.00 in 0 W/m2
02:59 73.2 °F 71.4 °F 29.92 in SE 2.4 mph 6 mph 94% 0.00 in 0 W/m2
03:04 73.3 °F 71.4 °F 29.92 in SSE 2.4 mph 6 mph 94% 0.00 in 0 W/m2
03:09 73.3 °F 71.5 °F 29.92 in SSE 1.9 mph 6 mph 94% 0.00 in 0 W/m2
03:14 73.3 °F 71.3 °F 29.92 in South 1.3 mph 5 mph 93.4% 0.00 in 0 W/m2
03:19 73.3 °F 71.1 °F 29.93 in SE 0.7 mph 5 mph 93% 0.00 in 0 W/m2
03:24 73.2 °F 71.1 °F 29.93 in SSE 1.4 mph 4 mph 93% 0.00 in 0 W/m2
03:29 73.3 °F 71.1 °F 29.93 in SSE 2.1 mph 4 mph 93% 0.00 in 0 W/m2
03:34 73.3 °F 71.2 °F 29.93 in SE 1 mph 5 mph 93% 0.00 in 0 W/m2
03:39 73.3 °F 71.2 °F 29.93 in SE 2.5 mph 5 mph 93% 0.00 in 0 W/m2
03:44 73.3 °F 71.2 °F 29.93 in SE 1.4 mph 4 mph 93% 0.00 in 0 W/m2
03:49 73.3 °F 71.2 °F 29.93 in SE 2.1 mph 5 mph 93% 0.00 in 0 W/m2
03:54 73.3 °F 71.2 °F 29.93 in SE 1.3 mph 5 mph 93% 0.00 in 0 W/m2
03:59 73.3 °F 71.1 °F 29.93 in SE 1.5 mph 5 mph 93% 0.00 in 0 W/m2
04:04 73.2 °F 71.1 °F 29.93 in ESE 1 mph 4 mph 93% 0.00 in 0 W/m2
04:09 73.2 °F 71.1 °F 29.93 in SE 1.2 mph 4 mph 93% 0.00 in 0 W/m2
04:14 73.1 °F 71 °F 29.93 in SE 1 mph 4 mph 93% 0.00 in 0 W/m2
04:19 73.1 °F 71 °F 29.92 in SE 1.5 mph 4 mph 93% 0.00 in 0 W/m2
04:24 73 °F 70.9 °F 29.92 in SE 1.4 mph 6 mph 93% 0.00 in 0 W/m2
04:29 73 °F 70.9 °F 29.93 in SE 1.4 mph 4 mph 93% 0.00 in 0 W/m2
04:34 73 °F 70.9 °F 29.93 in SE 2.1 mph 5 mph 93% 0.00 in 0 W/m2
04:39 73 °F 70.8 °F 29.93 in SE 2.6 mph 7 mph 93% 0.00 in 0 W/m2
04:44 73 °F 70.9 °F 29.92 in SE 2 mph 7 mph 93% 0.00 in 0 W/m2
04:49 73 °F 70.9 °F 29.92 in SSE 2 mph 5 mph 93% 0.00 in 0 W/m2
04:54 73 °F 70.9 °F 29.92 in SW 2.5 mph 7 mph 93% 0.00 in 0 W/m2
04:59 73 °F 70.9 °F 29.92 in SSE 3.2 mph 7 mph 92.9% 0.00 in 0 W/m2
05:04 73.2 °F 70.7 °F 29.92 in SSE 2.8 mph 8 mph 92% 0.00 in 0 W/m2
05:09 73.4 °F 70.9 °F 29.92 in SSE 2 mph 7 mph 91.8% 0.00 in 0 W/m2
05:14 73.6 °F 70.8 °F 29.92 in SSE 3 mph 5 mph 91% 0.00 in 0 W/m2
05:19 73.8 °F 70.7 °F 29.92 in SE 2.9 mph 6 mph 90.1% 0.00 in 0 W/m2
05:24 73.9 °F 70.7 °F 29.92 in SE 2.8 mph 8 mph 90% 0.00 in 0 W/m2
05:29 73.9 °F 70.6 °F 29.92 in SSE 2.3 mph 6 mph 89.5% 0.00 in 0 W/m2
05:34 73.9 °F 70.5 °F 29.92 in SE 2.7 mph 6 mph 89% 0.00 in 0 W/m2
05:39 73.9 °F 70.4 °F 29.92 in ESE 1.7 mph 5 mph 89% 0.00 in 0 W/m2
05:44 73.8 °F 70.4 °F 29.92 in SSE 2.1 mph 5 mph 89% 0.00 in 0 W/m2
05:49 73.7 °F 70.5 °F 29.92 in SE 1.4 mph 4 mph 89.7% 0.00 in 0 W/m2
05:54 73.6 °F 70.4 °F 29.93 in SE 1.3 mph 5 mph 90% 0.00 in 0 W/m2
05:59 73.4 °F 70.3 °F 29.93 in SE 1.2 mph 4 mph 90% 0.00 in 0 W/m2
06:04 73.3 °F 70.3 °F 29.93 in SE 0.9 mph 4 mph 90.3% 0.00 in 0 W/m2
06:09 73.2 °F 70.1 °F 29.93 in SE 0.1 mph 1 mph 90% 0.00 in 0 W/m2
06:14 73 °F 70.1 °F 29.93 in SSE 0.7 mph 2 mph 90.6% 0.00 in 0 W/m2
06:19 72.9 °F 70.1 °F 29.93 in SSE 0.8 mph 4 mph 91% 0.00 in 0 W/m2
06:24 72.8 °F 70 °F 29.93 in SSE 0.5 mph 2 mph 91% 0.00 in 0 W/m2
06:29 72.7 °F 69.9 °F 29.93 in SSE 0.4 mph 2 mph 91% 0.00 in 0 W/m2
06:34 72.5 °F 69.8 °F 29.94 in SSE 0.4 mph 1 mph 91% 0.00 in 0 W/m2
06:39 72.5 °F 69.9 °F 29.94 in SSE 0.1 mph 2 mph 91.7% 0.00 in 0 W/m2
06:44 72.4 °F 69.9 °F 29.94 in SSE 0.7 mph 2 mph 92% 0.00 in 5 W/m2
06:47 72.3 °F 69.9 °F 29.94 in SSE 0.7 mph 2 mph 92% 0.00 in 7 W/m2
06:54 72.3 °F 69.8 °F 29.94 in SSE 1.1 mph 2 mph 92% 0.00 in 14 W/m2
06:59 72.3 °F 69.8 °F 29.94 in SSE 1.2 mph 4 mph 92% 0.00 in 18 W/m2
07:04 72.3 °F 70 °F 29.94 in SSE 1.6 mph 5 mph 92.7% 0.00 in 23 W/m2
07:09 72.2 °F 70.1 °F 29.93 in ESE 2 mph 5 mph 93% 0.00 in 35 W/m2
07:14 72.3 °F 70.2 °F 29.93 in ESE 2.3 mph 6 mph 93% 0.00 in 44 W/m2
07:19 72.4 °F 70.2 °F 29.93 in SE 3.1 mph 6 mph 93% 0.00 in 54 W/m2
07:24 72.5 °F 70.4 °F 29.93 in ESE 2.8 mph 6 mph 93% 0.00 in 63 W/m2
07:29 72.7 °F 70.5 °F 29.93 in SE 2.4 mph 7 mph 92.8% 0.00 in 84 W/m2
07:34 72.9 °F 70.4 °F 29.93 in SE 3.3 mph 7 mph 92% 0.00 in 97 W/m2
07:39 73.1 °F 70.7 °F 29.93 in SE 4 mph 7 mph 92% 0.00 in 105 W/m2
07:44 73.4 °F 70.9 °F 29.93 in SE 3.5 mph 9 mph 92% 0.00 in 116 W/m2
07:49 73.6 °F 70.8 °F 29.93 in East 3.4 mph 7 mph 91.1% 0.00 in 123 W/m2
07:54 73.8 °F 71 °F 29.94 in SE 2.5 mph 8 mph 91% 0.00 in 139 W/m2
07:59 74.1 °F 70.9 °F 29.94 in SE 4.4 mph 8 mph 90% 0.00 in 151 W/m2
08:04 74.4 °F 71.1 °F 29.94 in SE 5.5 mph 14 mph 89.4% 0.00 in 160 W/m2
08:09 74.7 °F 71.2 °F 29.94 in SSE 3.9 mph 12 mph 88.9% 0.00 in 172 W/m2
08:14 75 °F 71.1 °F 29.94 in SE 4 mph 12 mph 87.8% 0.00 in 181 W/m2
08:19 75.2 °F 71.1 °F 29.94 in SSE 4.9 mph 9 mph 87% 0.00 in 195 W/m2
08:24 75.6 °F 71.3 °F 29.94 in SSE 3 mph 8 mph 86.6% 0.00 in 204 W/m2
08:29 75.8 °F 71.2 °F 29.94 in SSE 4.8 mph 12 mph 85.7% 0.00 in 214 W/m2
08:34 76.1 °F 71.3 °F 29.94 in South 4.2 mph 9 mph 85% 0.00 in 223 W/m2
08:39 76.4 °F 71.5 °F 29.94 in SSE 4.9 mph 13 mph 84.7% 0.00 in 232 W/m2
08:44 76.7 °F 71.5 °F 29.93 in SSE 4.4 mph 9 mph 83.9% 0.00 in 237 W/m2
08:49 77 °F 71.5 °F 29.94 in SSE 5.4 mph 13 mph 83% 0.00 in 241 W/m2
08:54 77.2 °F 71.7 °F 29.94 in South 3.3 mph 9 mph 83% 0.00 in 241 W/m2
08:59 77.6 °F 71.8 °F 29.93 in SSE 5.1 mph 11 mph 82.4% 0.00 in 239 W/m2
09:04 77.7 °F 71.8 °F 29.94 in SSE 4.1 mph 10 mph 82% 0.00 in 232 W/m2
09:09 78 °F 72 °F 29.94 in SSE 3.3 mph 10 mph 82% 0.00 in 237 W/m2
09:14 78.3 °F 72.3 °F 29.94 in South 4.4 mph 9 mph 81.6% 0.00 in 260 W/m2
09:19 78.5 °F 72.1 °F 29.94 in SSE 3.7 mph 8 mph 81% 0.00 in 308 W/m2
09:24 78.6 °F 72.3 °F 29.94 in South 3.7 mph 8 mph 81% 0.00 in 345 W/m2
09:29 78.8 °F 72.4 °F 29.93 in SSE 4.3 mph 8 mph 81% 0.00 in 383 W/m2
09:34 78.9 °F 72.6 °F 29.93 in SSE 3.5 mph 7 mph 81% 0.00 in 396 W/m2
09:39 79.5 °F 73 °F 29.93 in SSE 3.2 mph 9 mph 80.5% 0.00 in 406 W/m2
09:44 80 °F 72.9 °F 29.93 in South 4.9 mph 9 mph 79% 0.00 in 422 W/m2
09:49 80.2 °F 72.9 °F 29.93 in SSW 2.9 mph 6 mph 78.6% 0.00 in 439 W/m2
09:54 80.5 °F 73.2 °F 29.93 in South 3.2 mph 8 mph 78.5% 0.00 in 455 W/m2
09:59 80.7 °F 73.1 °F 29.93 in South 4.3 mph 7 mph 77.8% 0.00 in 471 W/m2
10:04 80.9 °F 73 °F 29.93 in South 4.2 mph 8 mph 77% 0.00 in 482 W/m2
10:09 81.2 °F 73.2 °F 29.93 in SSE 2.6 mph 7 mph 76.8% 0.00 in 497 W/m2
10:14 81.6 °F 73.6 °F 29.93 in South 2.7 mph 6 mph 76.6% 0.00 in 501 W/m2
10:19 82.4 °F 73.9 °F 29.93 in SSW 3.9 mph 8 mph 75.5% 0.00 in 508 W/m2
10:24 82.6 °F 73.6 °F 29.93 in South 4 mph 10 mph 74.3% 0.00 in 506 W/m2
10:29 82.4 °F 73.5 °F 29.93 in SSE 4.3 mph 8 mph 74.4% 0.00 in 510 W/m2
10:34 82.2 °F 73.4 °F 29.93 in South 3 mph 6 mph 74.6% 0.00 in 503 W/m2
10:39 82.8 °F 73.6 °F 29.93 in SSW 2.6 mph 7 mph 73.9% 0.00 in 501 W/m2
10:44 83.2 °F 73.6 °F 29.94 in SSW 3.5 mph 7 mph 72.9% 0.00 in 494 W/m2
10:49 83 °F 73.4 °F 29.93 in SSE 2.3 mph 6 mph 73% 0.00 in 487 W/m2
10:54 83.4 °F 73.7 °F 29.93 in SSE 3.3 mph 6 mph 72.8% 0.00 in 492 W/m2
10:59 83.8 °F 73.5 °F 29.94 in SW 2.5 mph 6 mph 71.2% 0.00 in 519 W/m2
11:04 84.5 °F 73.5 °F 29.94 in SSE 2.5 mph 8 mph 69.7% 0.00 in 520 W/m2
11:09 84.4 °F 72.5 °F 29.94 in SSE 4.2 mph 8 mph 67.5% 0.00 in 554 W/m2
11:14 84.3 °F 72.3 °F 29.94 in SSE 4.1 mph 8 mph 67.3% 0.00 in 580 W/m2
11:19 84.4 °F 72.3 °F 29.94 in SSE 4.1 mph 7 mph 67% 0.00 in 615 W/m2
11:24 85 °F 72.3 °F 29.94 in SSW 3.1 mph 6 mph 65.9% 0.00 in 642 W/m2
11:29 85.2 °F 72.4 °F 29.94 in South 2.6 mph 6 mph 65.7% 0.00 in 673 W/m2
11:34 85.9 °F 72.8 °F 29.94 in SSE 2.3 mph 7 mph 64.9% 0.00 in 687 W/m2
11:39 86.5 °F 72.9 °F 29.94 in SW 3 mph 6 mph 64.1% 0.00 in 698 W/m2
11:44 86.7 °F 72.6 °F 29.94 in SSW 4.5 mph 8 mph 63% 0.00 in 714 W/m2
11:49 86.2 °F 71.8 °F 29.95 in SSE 4 mph 8 mph 62.3% 0.00 in 721 W/m2
11:54 86 °F 71.7 °F 29.95 in SSE 4.3 mph 8 mph 62.5% 0.00 in 721 W/m2
11:59 86 °F 71.5 °F 29.94 in SSE 4.1 mph 11 mph 62.2% 0.00 in 728 W/m2
12:04 86.4 °F 71.8 °F 29.94 in South 3.7 mph 9 mph 61.9% 0.00 in 733 W/m2
66th and South
Compliments of Weather Underground - 12.54 mb